Time;durP1;ratioP1;P1;durP2;ratioP2;P2;SDS_P1;SDS_P2;PMS_P1;PMS_P2;Temp;Humidity;BMP_temperature;BMP_pressure;BME280_temperature;BME280_humidity;BME280_pressure;Samples;Min_cycle;Max_cycle;Signal;HPM_P1;HPM_P2
2023/05/10 00:00:36;;;;;;;0.40;0.38;;;;;;;;;;5040715;28;20409;-83
2023/05/10 00:03:04;;;;;;;1.13;0.50;;;;;;;;;;5044369;28;20383;-82
2023/05/10 00:05:30;;;;;;;0.30;0.30;;;;;;;;;;5034425;28;20386;-83
2023/05/10 00:07:56;;;;;;;0.32;0.32;;;;;;;;;;5042247;28;20834;-83
2023/05/10 00:10:22;;;;;;;1.30;0.50;;;;;;;;;;5049770;28;20378;-83
2023/05/10 00:12:48;;;;;;;0.57;0.47;;;;;;;;;;5046821;28;20385;-83
2023/05/10 00:15:14;;;;;;;0.38;0.38;;;;;;;;;;5036213;28;20420;-82
2023/05/10 00:17:40;;;;;;;1.13;0.43;;;;;;;;;;5050536;28;20377;-83
2023/05/10 00:20:06;;;;;;;0.80;0.50;;;;;;;;;;5045509;28;20842;-82
2023/05/10 00:22:33;;;;;;;2.55;0.60;;;;;;;;;;5040685;28;20404;-82
2023/05/10 00:24:59;;;;;;;1.70;0.40;;;;;;;;;;5042813;28;20388;-82
2023/05/10 00:27:25;;;;;;;0.83;0.40;;;;;;;;;;5036871;28;20383;-83
2023/05/10 00:29:51;;;;;;;0.47;0.47;;;;;;;;;;5043075;28;20417;-82
2023/05/10 00:32:17;;;;;;;0.50;0.50;;;;;;;;;;5039779;28;20394;-82
2023/05/10 00:34:43;;;;;;;2.10;0.60;;;;;;;;;;5046089;28;20863;-83
2023/05/10 00:37:09;;;;;;;0.60;0.50;;;;;;;;;;5044480;28;20389;-82
2023/05/10 00:39:35;;;;;;;0.95;0.50;;;;;;;;;;5049769;28;20408;-82
2023/05/10 00:42:01;;;;;;;1.13;0.60;;;;;;;;;;5038489;28;20399;-82
2023/05/10 00:44:27;;;;;;;1.65;0.57;;;;;;;;;;5035557;28;20382;-82
2023/05/10 00:46:53;;;;;;;0.82;0.70;;;;;;;;;;5035610;28;20371;-82
2023/05/10 00:49:20;;;;;;;1.42;0.70;;;;;;;;;;5039327;28;20848;-82
2023/05/10 00:51:46;;;;;;;1.15;0.77;;;;;;;;;;5038080;28;20433;-82
2023/05/10 00:54:12;;;;;;;1.60;0.80;;;;;;;;;;5042936;28;20378;-82
2023/05/10 00:56:38;;;;;;;1.20;0.70;;;;;;;;;;5043172;28;20447;-81
2023/05/10 00:59:04;;;;;;;1.95;0.90;;;;;;;;;;5039007;28;20381;-82
2023/05/10 01:01:31;;;;;;;0.70;0.68;;;;;;;;;;5047951;28;20402;-83
2023/05/10 01:04:00;;;;;;;1.48;0.80;;;;;;;;;;5036493;28;20410;-82
2023/05/10 01:06:27;;;;;;;2.03;0.80;;;;;;;;;;5046134;28;20494;-81
2023/05/10 01:08:53;;;;;;;1.00;0.75;;;;;;;;;;5050419;28;20374;-81
2023/05/10 01:11:19;;;;;;;0.63;0.63;;;;;;;;;;5036655;28;20489;-81
2023/05/10 01:13:48;;;;;;;1.70;0.90;;;;;;;;;;5039921;28;20412;-82
2023/05/10 01:16:14;;;;;;;1.60;0.80;;;;;;;;;;5051121;28;20392;-83
2023/05/10 01:18:41;;;;;;;0.75;0.70;;;;;;;;;;5047628;28;20373;-84
2023/05/10 01:21:27;;;;;;;0.82;0.60;;;;;;;;;;5050767;28;20401;-83
2023/05/10 01:24:12;;;;;;;1.70;0.80;;;;;;;;;;5045591;28;20375;-82
2023/05/10 01:26:41;;;;;;;0.80;0.70;;;;;;;;;;5048477;28;20381;-82
2023/05/10 01:29:16;;;;;;;1.13;0.60;;;;;;;;;;5040690;28;20408;-83
2023/05/10 01:32:07;;;;;;;1.27;0.70;;;;;;;;;;5045978;28;20712;-82
2023/05/10 01:34:35;;;;;;;1.77;0.80;;;;;;;;;;5039853;28;20733;-82
2023/05/10 01:37:01;;;;;;;0.90;0.70;;;;;;;;;;5039849;28;20430;-82
2023/05/10 01:39:40;;;;;;;1.35;0.70;;;;;;;;;;5044861;28;20405;-82
2023/05/10 01:42:11;;;;;;;2.30;0.70;;;;;;;;;;5047680;28;20382;-81
2023/05/10 01:45:00;;;;;;;1.65;0.70;;;;;;;;;;5037462;28;20458;-81
2023/05/10 01:47:40;;;;;;;0.75;0.60;;;;;;;;;;5035300;28;20385;-81
2023/05/10 01:50:10;;;;;;;1.05;0.68;;;;;;;;;;5046366;28;20498;-81
2023/05/10 01:52:43;;;;;;;0.88;0.68;;;;;;;;;;5042001;28;20409;-82
2023/05/10 01:55:12;;;;;;;1.02;0.60;;;;;;;;;;5045759;28;20382;-81
2023/05/10 01:57:39;;;;;;;0.60;0.60;;;;;;;;;;5035621;28;20433;-80
2023/05/10 02:00:07;;;;;;;0.85;0.60;;;;;;;;;;5041221;28;20403;-81
2023/05/10 02:02:35;;;;;;;2.63;0.70;;;;;;;;;;5040290;28;20872;-81
2023/05/10 02:05:03;;;;;;;2.83;0.70;;;;;;;;;;5037094;28;20396;-81
2023/05/10 02:07:29;;;;;;;1.20;0.80;;;;;;;;;;5048630;28;20385;-81
2023/05/10 02:09:56;;;;;;;0.80;0.60;;;;;;;;;;5030492;28;20498;-81
2023/05/10 02:12:23;;;;;;;1.13;0.60;;;;;;;;;;5030871;28;20395;-81
2023/05/10 02:14:51;;;;;;;1.85;0.70;;;;;;;;;;5031557;28;20472;-81
2023/05/10 02:17:17;;;;;;;0.80;0.75;;;;;;;;;;5034664;28;20386;-81
2023/05/10 02:19:44;;;;;;;0.70;0.70;;;;;;;;;;5034178;28;20756;-81
2023/05/10 02:22:10;;;;;;;2.63;0.77;;;;;;;;;;5034568;28;20382;-81
2023/05/10 02:24:37;;;;;;;0.70;0.70;;;;;;;;;;5041837;28;20871;-81
2023/05/10 02:27:04;;;;;;;1.70;0.70;;;;;;;;;;5049293;28;20375;-81
2023/05/10 02:29:31;;;;;;;1.85;0.70;;;;;;;;;;5033966;28;20417;-80
2023/05/10 02:31:58;;;;;;;1.00;0.70;;;;;;;;;;5034393;28;20462;-80
2023/05/10 02:34:24;;;;;;;0.88;0.80;;;;;;;;;;5034291;28;20375;-81
2023/05/10 02:36:51;;;;;;;1.33;0.90;;;;;;;;;;5034287;28;20410;-81
2023/05/10 02:39:18;;;;;;;1.13;0.80;;;;;;;;;;5037114;28;20413;-81
2023/05/10 02:41:45;;;;;;;0.70;0.70;;;;;;;;;;5054139;28;20927;-81
2023/05/10 02:44:12;;;;;;;1.40;1.00;;;;;;;;;;5053968;28;20476;-81
2023/05/10 02:46:38;;;;;;;1.65;0.80;;;;;;;;;;5044640;28;20385;-81
2023/05/10 02:49:04;;;;;;;0.88;0.73;;;;;;;;;;5053502;28;20881;-81
2023/05/10 02:51:33;;;;;;;2.13;0.90;;;;;;;;;;5053902;28;20381;-81
2023/05/10 02:54:01;;;;;;;1.45;0.93;;;;;;;;;;5053962;28;20384;-81
2023/05/10 02:56:31;;;;;;;2.33;0.98;;;;;;;;;;5053771;28;20392;-81
2023/05/10 02:58:57;;;;;;;1.63;1.00;;;;;;;;;;5047435;28;20407;-80
2023/05/10 03:01:24;;;;;;;1.15;1.08;;;;;;;;;;5049773;28;20452;-81
2023/05/10 03:03:50;;;;;;;2.10;1.20;;;;;;;;;;5048387;28;20375;-80
2023/05/10 03:06:16;;;;;;;1.60;1.40;;;;;;;;;;5046102;28;20928;-81
2023/05/10 03:08:42;;;;;;;1.40;1.30;;;;;;;;;;5047762;28;20383;-81
2023/05/10 03:11:14;;;;;;;2.37;1.70;;;;;;;;;;5041547;28;20391;-80
2023/05/10 03:13:49;;;;;;;1.58;1.48;;;;;;;;;;5040536;28;20421;-80
2023/05/10 03:16:17;;;;;;;1.98;1.77;;;;;;;;;;5053430;28;20871;-81
2023/05/10 03:19:02;;;;;;;1.90;1.73;;;;;;;;;;5053147;28;20418;-81
2023/05/10 03:21:30;;;;;;;2.20;1.48;;;;;;;;;;5053311;28;20445;-81
2023/05/10 03:24:11;;;;;;;1.90;1.70;;;;;;;;;;5053359;28;20382;-81
2023/05/10 03:26:38;;;;;;;1.70;1.60;;;;;;;;;;5052982;28;20373;-81
2023/05/10 03:29:05;;;;;;;3.20;1.60;;;;;;;;;;5050462;28;20399;-81
2023/05/10 03:31:31;;;;;;;1.63;1.52;;;;;;;;;;5047103;28;20382;-80
2023/05/10 03:33:57;;;;;;;2.30;1.65;;;;;;;;;;5053138;28;20397;-80
2023/05/10 03:36:23;;;;;;;1.73;1.63;;;;;;;;;;5052598;28;20720;-81
2023/05/10 03:38:49;;;;;;;3.33;1.60;;;;;;;;;;5032168;28;20386;-80
2023/05/10 03:41:15;;;;;;;1.75;1.60;;;;;;;;;;5038206;28;20790;-81
2023/05/10 03:43:41;;;;;;;2.10;1.60;;;;;;;;;;5040409;28;20848;-80
2023/05/10 03:46:07;;;;;;;2.10;1.40;;;;;;;;;;5048094;28;20462;-80
2023/05/10 03:48:33;;;;;;;1.95;1.70;;;;;;;;;;5051788;28;20519;-81
2023/05/10 03:50:59;;;;;;;1.73;1.48;;;;;;;;;;5052720;28;20827;-81
2023/05/10 03:53:26;;;;;;;1.67;1.58;;;;;;;;;;5052894;28;20865;-81
2023/05/10 03:55:52;;;;;;;2.88;1.45;;;;;;;;;;5052622;28;20389;-80
2023/05/10 03:58:18;;;;;;;1.50;1.40;;;;;;;;;;5052185;28;20515;-80
2023/05/10 04:00:45;;;;;;;1.85;1.75;;;;;;;;;;5037220;28;21033;-80
2023/05/10 04:03:11;;;;;;;1.67;1.50;;;;;;;;;;5049197;28;20380;-81
2023/05/10 04:05:37;;;;;;;2.95;1.67;;;;;;;;;;5046749;28;20422;-81
2023/05/10 04:08:04;;;;;;;1.67;1.58;;;;;;;;;;5041387;28;20386;-80
2023/05/10 04:10:30;;;;;;;3.22;1.60;;;;;;;;;;5045721;28;20384;-80
2023/05/10 04:12:56;;;;;;;2.10;1.70;;;;;;;;;;5037675;28;20383;-80
2023/05/10 04:15:22;;;;;;;3.13;1.50;;;;;;;;;;5041003;28;20509;-80
2023/05/10 04:17:48;;;;;;;1.83;1.70;;;;;;;;;;5034493;28;20935;-80
2023/05/10 04:20:14;;;;;;;1.88;1.70;;;;;;;;;;5033052;28;20413;-82
2023/05/10 04:22:40;;;;;;;1.88;1.77;;;;;;;;;;5031635;28;20379;-81
2023/05/10 04:25:07;;;;;;;1.90;1.73;;;;;;;;;;5036389;28;20487;-82
2023/05/10 04:27:33;;;;;;;2.42;1.70;;;;;;;;;;5030861;28;20884;-82
2023/05/10 04:29:59;;;;;;;4.05;1.83;;;;;;;;;;5031713;28;20499;-81
2023/05/10 04:32:25;;;;;;;2.40;1.88;;;;;;;;;;5037951;28;20477;-81
2023/05/10 04:34:51;;;;;;;2.40;2.20;;;;;;;;;;5051278;28;20888;-80
2023/05/10 04:37:17;;;;;;;2.93;1.90;;;;;;;;;;5044354;28;20474;-80
2023/05/10 04:39:43;;;;;;;2.15;2.00;;;;;;;;;;5039129;28;20403;-80
2023/05/10 04:42:09;;;;;;;2.60;1.92;;;;;;;;;;5038170;28;20383;-80
2023/05/10 04:44:36;;;;;;;2.13;1.85;;;;;;;;;;5042800;28;20738;-80
2023/05/10 04:47:02;;;;;;;2.27;1.83;;;;;;;;;;5031771;28;20375;-80
2023/05/10 04:49:29;;;;;;;1.80;1.70;;;;;;;;;;5031423;28;20517;-79
2023/05/10 04:51:55;;;;;;;1.97;1.70;;;;;;;;;;5031490;28;20386;-80
2023/05/10 04:54:21;;;;;;;3.25;1.92;;;;;;;;;;5031862;28;20908;-80
2023/05/10 04:56:47;;;;;;;1.77;1.67;;;;;;;;;;5038033;28;20391;-80
2023/05/10 04:59:13;;;;;;;1.60;1.50;;;;;;;;;;5031394;28;20797;-80
2023/05/10 05:01:39;;;;;;;2.40;1.63;;;;;;;;;;5041485;28;20477;-82
2023/05/10 05:04:06;;;;;;;1.70;1.60;;;;;;;;;;5043954;28;20381;-80
2023/05/10 05:06:32;;;;;;;2.25;1.80;;;;;;;;;;5044653;28;20433;-80
2023/05/10 05:08:58;;;;;;;3.22;1.63;;;;;;;;;;5047041;28;20474;-80
2023/05/10 05:11:25;;;;;;;1.95;1.80;;;;;;;;;;5049738;28;20417;-82
2023/05/10 05:13:51;;;;;;;1.70;1.60;;;;;;;;;;5044061;28;20395;-79
2023/05/10 05:16:17;;;;;;;1.70;1.40;;;;;;;;;;5031414;28;20476;-80
2023/05/10 05:18:43;;;;;;;3.42;1.70;;;;;;;;;;5031121;28;20426;-80
2023/05/10 05:21:20;;;;;;;1.60;1.50;;;;;;;;;;5031540;28;20434;-81
2023/05/10 05:23:46;;;;;;;1.90;1.70;;;;;;;;;;5037651;28;20375;-80
2023/05/10 05:26:12;;;;;;;1.80;1.70;;;;;;;;;;5032863;28;20375;-81
2023/05/10 05:28:39;;;;;;;1.90;1.60;;;;;;;;;;5030785;28;20379;-81
2023/05/10 05:31:05;;;;;;;2.67;1.75;;;;;;;;;;5031224;28;20870;-80
2023/05/10 05:33:31;;;;;;;4.70;1.80;;;;;;;;;;5029820;28;20390;-80
2023/05/10 05:35:57;;;;;;;2.10;1.60;;;;;;;;;;5040213;28;20454;-80
2023/05/10 05:38:23;;;;;;;2.53;1.65;;;;;;;;;;5034679;28;20491;-79
2023/05/10 05:40:49;;;;;;;1.50;1.40;;;;;;;;;;5042820;28;20423;-80
2023/05/10 05:43:15;;;;;;;1.90;1.60;;;;;;;;;;5038712;28;20433;-79
2023/05/10 05:45:41;;;;;;;2.47;1.70;;;;;;;;;;5040852;28;20393;-80
2023/05/10 05:48:07;;;;;;;1.88;1.70;;;;;;;;;;5041763;28;20477;-80
2023/05/10 05:50:33;;;;;;;2.10;1.45;;;;;;;;;;5042008;28;20863;-80
2023/05/10 05:52:59;;;;;;;2.05;1.63;;;;;;;;;;5041481;28;20385;-79
2023/05/10 05:55:25;;;;;;;1.65;1.55;;;;;;;;;;5047026;28;20390;-79
2023/05/10 05:57:51;;;;;;;2.50;1.30;;;;;;;;;;5036176;28;20462;-79
2023/05/10 06:00:17;;;;;;;2.17;1.30;;;;;;;;;;5034565;28;20890;-79
2023/05/10 06:02:44;;;;;;;1.60;1.30;;;;;;;;;;5034438;28;20387;-79
2023/05/10 06:05:10;;;;;;;2.40;1.35;;;;;;;;;;5049334;28;20381;-80
2023/05/10 06:07:36;;;;;;;2.53;1.25;;;;;;;;;;5046144;28;20418;-80
2023/05/10 06:10:02;;;;;;;1.58;1.10;;;;;;;;;;5047320;28;20414;-80
2023/05/10 06:12:28;;;;;;;1.20;1.10;;;;;;;;;;5038153;28;20893;-80
2023/05/10 06:14:54;;;;;;;1.63;1.30;;;;;;;;;;5037013;28;20383;-80
2023/05/10 06:17:21;;;;;;;1.40;1.30;;;;;;;;;;5034448;28;20474;-80
2023/05/10 06:19:47;;;;;;;1.60;1.30;;;;;;;;;;5034178;28;20411;-80
2023/05/10 06:22:13;;;;;;;1.42;1.33;;;;;;;;;;5034623;28;20520;-80
2023/05/10 06:24:39;;;;;;;1.25;1.15;;;;;;;;;;5040018;28;20884;-80
2023/05/10 06:27:06;;;;;;;1.20;1.10;;;;;;;;;;5033825;28;20522;-80
2023/05/10 06:29:32;;;;;;;1.17;1.08;;;;;;;;;;5033991;28;20411;-79
2023/05/10 06:31:58;;;;;;;2.63;1.40;;;;;;;;;;5034172;28;20454;-80
2023/05/10 06:34:24;;;;;;;1.20;1.10;;;;;;;;;;5037400;28;20424;-80
2023/05/10 06:36:50;;;;;;;1.40;1.10;;;;;;;;;;5037072;28;20376;-80
2023/05/10 06:39:16;;;;;;;2.65;1.15;;;;;;;;;;5037547;28;20534;-80
2023/05/10 06:41:42;;;;;;;2.33;1.20;;;;;;;;;;5054130;28;20742;-80
2023/05/10 06:44:08;;;;;;;2.80;1.33;;;;;;;;;;5054010;28;20374;-79
2023/05/10 06:46:35;;;;;;;1.70;1.20;;;;;;;;;;5053674;28;20376;-79
2023/05/10 06:49:00;;;;;;;1.30;1.10;;;;;;;;;;5047879;28;20443;-80
2023/05/10 06:51:27;;;;;;;1.60;1.13;;;;;;;;;;5046198;28;20390;-79
2023/05/10 06:53:53;;;;;;;2.28;1.10;;;;;;;;;;5050506;28;20381;-79
2023/05/10 06:56:21;;;;;;;1.80;1.00;;;;;;;;;;5037253;28;20394;-80
2023/05/10 06:58:47;;;;;;;3.22;1.20;;;;;;;;;;5036062;28;20395;-80
2023/05/10 07:01:13;;;;;;;1.95;1.25;;;;;;;;;;5048977;28;20405;-80
2023/05/10 07:03:39;;;;;;;1.45;1.35;;;;;;;;;;5044977;28;20398;-79
2023/05/10 07:06:07;;;;;;;2.05;1.00;;;;;;;;;;5050602;28;20390;-80
2023/05/10 07:08:33;;;;;;;2.55;1.10;;;;;;;;;;5049451;28;20377;-79
2023/05/10 07:11:10;;;;;;;1.37;1.00;;;;;;;;;;5043155;28;20432;-79
2023/05/10 07:13:37;;;;;;;2.00;0.80;;;;;;;;;;5039238;28;20777;-79
2023/05/10 07:16:06;;;;;;;1.15;0.80;;;;;;;;;;5046526;28;20480;-79
2023/05/10 07:18:31;;;;;;;0.85;0.85;;;;;;;;;;5044792;28;20399;-79
2023/05/10 07:20:58;;;;;;;0.82;0.80;;;;;;;;;;5033502;28;20487;-79
2023/05/10 07:23:24;;;;;;;2.00;0.70;;;;;;;;;;5033445;28;20466;-79
2023/05/10 07:25:53;;;;;;;4.05;0.90;;;;;;;;;;5050902;28;20381;-79
2023/05/10 07:28:20;;;;;;;1.23;1.00;;;;;;;;;;5037354;28;20970;-81
2023/05/10 07:30:46;;;;;;;2.33;0.90;;;;;;;;;;5036880;28;20434;-80
2023/05/10 07:33:13;;;;;;;2.40;1.00;;;;;;;;;;5039499;28;20482;-81
2023/05/10 07:35:39;;;;;;;1.60;0.80;;;;;;;;;;5044776;28;20390;-80
2023/05/10 07:38:05;;;;;;;1.13;0.90;;;;;;;;;;5047602;28;20444;-80
2023/05/10 07:40:31;;;;;;;1.33;0.80;;;;;;;;;;5050957;28;20420;-78
2023/05/10 07:42:57;;;;;;;2.20;1.05;;;;;;;;;;5048516;28;20379;-79
2023/05/10 07:45:23;;;;;;;1.00;0.73;;;;;;;;;;5049693;28;20791;-78
2023/05/10 07:47:49;;;;;;;1.80;0.80;;;;;;;;;;5048893;28;20382;-78
2023/05/10 07:50:15;;;;;;;1.42;0.82;;;;;;;;;;5041788;28;20379;-80
2023/05/10 07:52:41;;;;;;;1.27;0.63;;;;;;;;;;5032927;28;20379;-79
2023/05/10 07:55:08;;;;;;;1.00;0.70;;;;;;;;;;5032974;28;20379;-80
2023/05/10 07:57:34;;;;;;;1.45;0.65;;;;;;;;;;5032703;28;20737;-79
2023/05/10 08:00:00;;;;;;;0.95;0.60;;;;;;;;;;5032759;28;20410;-78
2023/05/10 08:02:26;;;;;;;1.08;0.50;;;;;;;;;;5032711;28;20380;-78
2023/05/10 08:04:52;;;;;;;0.88;0.52;;;;;;;;;;5032295;28;20387;-78
2023/05/10 08:07:18;;;;;;;0.68;0.68;;;;;;;;;;5037012;28;20390;-78
2023/05/10 08:09:44;;;;;;;1.80;0.70;;;;;;;;;;5042541;28;20398;-78
2023/05/10 08:12:10;;;;;;;0.55;0.40;;;;;;;;;;5035388;28;20378;-78
2023/05/10 08:14:36;;;;;;;0.80;0.50;;;;;;;;;;5036969;28;20385;-77
2023/05/10 08:17:03;;;;;;;0.50;0.50;;;;;;;;;;5050402;28;20461;-78
2023/05/10 08:19:29;;;;;;;0.50;0.50;;;;;;;;;;5042207;28;20762;-78
2023/05/10 08:21:55;;;;;;;0.75;0.50;;;;;;;;;;5032346;28;20390;-78
2023/05/10 08:24:21;;;;;;;0.98;0.40;;;;;;;;;;5033955;28;20387;-78
2023/05/10 08:26:47;;;;;;;0.55;0.45;;;;;;;;;;5032002;28;20875;-78
2023/05/10 08:29:14;;;;;;;1.67;0.50;;;;;;;;;;5031977;28;20473;-80
2023/05/10 08:31:40;;;;;;;1.88;0.60;;;;;;;;;;5032153;28;20387;-79
2023/05/10 08:34:06;;;;;;;1.30;0.60;;;;;;;;;;5038307;28;20835;-79
2023/05/10 08:36:32;;;;;;;0.95;0.80;;;;;;;;;;5040998;28;20389;-78
2023/05/10 08:38:58;;;;;;;1.08;0.50;;;;;;;;;;5033261;28;20387;-79
2023/05/10 08:41:25;;;;;;;1.55;0.63;;;;;;;;;;5051546;28;20409;-78
2023/05/10 08:43:51;;;;;;;1.65;0.68;;;;;;;;;;5051414;28;20377;-78
2023/05/10 08:46:19;;;;;;;1.95;0.70;;;;;;;;;;5042640;28;20935;-78
2023/05/10 08:48:45;;;;;;;1.35;0.80;;;;;;;;;;5045704;28;20464;-79
2023/05/10 08:51:16;;;;;;;1.75;1.08;;;;;;;;;;5037675;28;20387;-78
2023/05/10 08:53:42;;;;;;;1.08;0.90;;;;;;;;;;5035795;28;20437;-78
2023/05/10 08:56:08;;;;;;;1.08;0.80;;;;;;;;;;5031616;28;20864;-78
2023/05/10 08:58:35;;;;;;;1.52;0.82;;;;;;;;;;5031420;28;20578;-79
2023/05/10 09:01:01;;;;;;;2.55;1.08;;;;;;;;;;5039100;28;20416;-76
2023/05/10 09:03:27;;;;;;;2.20;0.80;;;;;;;;;;5031863;28;20714;-79
2023/05/10 09:05:55;;;;;;;3.40;1.00;;;;;;;;;;5037281;28;20373;-78
2023/05/10 09:08:25;;;;;;;1.92;0.95;;;;;;;;;;5039901;28;20479;-79
2023/05/10 09:10:51;;;;;;;1.50;0.90;;;;;;;;;;5041174;28;20384;-78
2023/05/10 09:13:18;;;;;;;1.10;0.70;;;;;;;;;;5039687;28;20387;-77
2023/05/10 09:15:44;;;;;;;1.83;1.00;;;;;;;;;;5047843;28;20439;-77
2023/05/10 09:18:10;;;;;;;2.53;0.90;;;;;;;;;;5034925;28;20413;-78
2023/05/10 09:20:36;;;;;;;2.80;1.02;;;;;;;;;;5031423;28;20411;-79
2023/05/10 09:23:02;;;;;;;2.20;1.13;;;;;;;;;;5031224;28;20371;-78
2023/05/10 09:25:28;;;;;;;2.50;0.90;;;;;;;;;;5037742;28;20406;-77
2023/05/10 09:27:55;;;;;;;3.25;0.82;;;;;;;;;;5031021;28;20380;-78
2023/05/10 09:30:28;;;;;;;2.05;1.08;;;;;;;;;;5030900;28;20438;-77
2023/05/10 09:32:55;;;;;;;2.20;0.98;;;;;;;;;;5031239;28;20387;-77
2023/05/10 09:35:22;;;;;;;3.30;0.80;;;;;;;;;;5033291;28;20729;-77
2023/05/10 09:37:50;;;;;;;2.17;1.00;;;;;;;;;;5045021;28;20385;-76
2023/05/10 09:40:20;;;;;;;1.92;0.93;;;;;;;;;;5046108;28;20412;-79
2023/05/10 09:42:59;;;;;;;3.83;0.90;;;;;;;;;;5048317;28;20445;-77
2023/05/10 09:45:27;;;;;;;1.50;0.77;;;;;;;;;;5041053;28;20881;-77
2023/05/10 09:47:53;;;;;;;2.85;0.88;;;;;;;;;;5048592;28;20919;-76
2023/05/10 09:50:20;;;;;;;3.20;0.90;;;;;;;;;;5040230;28;20788;-79
2023/05/10 09:52:51;;;;;;;1.55;0.77;;;;;;;;;;5039047;28;20509;-80
2023/05/10 09:55:17;;;;;;;2.22;0.70;;;;;;;;;;5037598;28;20383;-79
2023/05/10 09:57:43;;;;;;;3.28;0.98;;;;;;;;;;5029339;28;20490;-80
2023/05/10 10:00:10;;;;;;;1.97;0.70;;;;;;;;;;5030664;28;20506;-80
2023/05/10 10:02:36;;;;;;;1.85;0.80;;;;;;;;;;5030977;28;20391;-81
2023/05/10 10:05:03;;;;;;;2.20;0.90;;;;;;;;;;5030294;28;20955;-83
2023/05/10 10:07:29;;;;;;;2.10;0.88;;;;;;;;;;5028470;28;20749;-83
2023/05/10 10:09:55;;;;;;;1.65;0.80;;;;;;;;;;5042008;28;20383;-84
2023/05/10 10:12:21;;;;;;;1.60;0.80;;;;;;;;;;5034236;28;20498;-83
2023/05/10 10:14:50;;;;;;;4.07;1.05;;;;;;;;;;5048202;28;20925;-81
2023/05/10 10:17:16;;;;;;;2.53;0.82;;;;;;;;;;5036499;28;20389;-80
2023/05/10 10:19:42;;;;;;;2.97;0.90;;;;;;;;;;5049156;28;20458;-80
2023/05/10 10:22:10;;;;;;;2.30;0.70;;;;;;;;;;5030794;28;20410;-80
2023/05/10 10:24:36;;;;;;;2.63;1.55;;;;;;;;;;5038008;28;20382;-80
2023/05/10 10:27:13;;;;;;;2.27;0.80;;;;;;;;;;5046233;28;20385;-80
2023/05/10 10:29:50;;;;;;;1.70;0.80;;;;;;;;;;5050335;28;20417;-81
2023/05/10 10:32:19;;;;;;;2.03;0.80;;;;;;;;;;5031381;28;20776;-80
2023/05/10 10:34:45;;;;;;;2.60;1.10;;;;;;;;;;5030717;28;20413;-81
2023/05/10 10:37:11;;;;;;;1.93;1.00;;;;;;;;;;5032936;28;20386;-80
2023/05/10 10:39:37;;;;;;;3.60;1.20;;;;;;;;;;5046274;28;20379;-81
2023/05/10 10:42:05;;;;;;;1.85;0.95;;;;;;;;;;5034293;28;20407;-80
2023/05/10 10:44:33;;;;;;;2.00;0.68;;;;;;;;;;5033705;28;20382;-80
2023/05/10 10:47:00;;;;;;;2.20;0.90;;;;;;;;;;5034042;28;20888;-80
2023/05/10 10:49:26;;;;;;;4.15;1.17;;;;;;;;;;5044944;28;20387;-79
2023/05/10 10:52:11;;;;;;;2.65;1.20;;;;;;;;;;5034044;28;20379;-79
2023/05/10 10:54:37;;;;;;;1.90;0.80;;;;;;;;;;5034026;28;20811;-79
2023/05/10 10:57:13;;;;;;;2.45;0.75;;;;;;;;;;5033641;28;20445;-79
2023/05/10 10:59:46;;;;;;;3.10;0.90;;;;;;;;;;5033750;28;20376;-80
2023/05/10 11:02:30;;;;;;;2.63;0.95;;;;;;;;;;5033962;28;20387;-81
2023/05/10 11:04:56;;;;;;;2.45;1.10;;;;;;;;;;5033821;28;20391;-80
2023/05/10 11:07:22;;;;;;;3.75;1.00;;;;;;;;;;5034995;28;20383;-81
2023/05/10 11:09:49;;;;;;;2.53;0.90;;;;;;;;;;5041666;28;20387;-80
2023/05/10 11:12:15;;;;;;;2.30;0.70;;;;;;;;;;5042308;28;20439;-81
2023/05/10 11:14:41;;;;;;;1.77;1.03;;;;;;;;;;5044195;22;20526;-81
2023/05/10 11:17:28;;;;;;;2.25;0.90;;;;;;;;;;5014439;28;20432;-80
2023/05/10 11:20:09;;;;;;;3.33;1.00;;;;;;;;;;5014070;28;20423;-80
2023/05/10 11:22:51;;;;;;;3.35;0.82;;;;;;;;;;5014510;28;20882;-80
2023/05/10 11:25:17;;;;;;;2.00;0.90;;;;;;;;;;5014088;28;20870;-84
2023/05/10 11:27:43;;;;;;;3.15;1.02;;;;;;;;;;5015207;28;20380;-80
2023/05/10 11:30:13;;;;;;;2.63;0.95;;;;;;;;;;5014118;28;20480;-81
2023/05/10 11:32:39;;;;;;;3.78;0.90;;;;;;;;;;5013062;28;20392;-80
2023/05/10 11:35:09;;;;;;;3.05;0.82;;;;;;;;;;5013859;28;20381;-80
2023/05/10 11:37:35;;;;;;;2.67;0.80;;;;;;;;;;5007192;28;20381;-80
2023/05/10 11:40:02;;;;;;;1.67;0.70;;;;;;;;;;5013821;28;20404;-80
2023/05/10 11:42:28;;;;;;;1.80;0.65;;;;;;;;;;5013843;28;20377;-80
2023/05/10 11:44:54;;;;;;;1.58;0.77;;;;;;;;;;5012980;28;20897;-79
2023/05/10 11:47:20;;;;;;;2.70;0.70;;;;;;;;;;5005398;28;20393;-79
2023/05/10 11:49:47;;;;;;;2.47;0.70;;;;;;;;;;5010453;28;20385;-80
2023/05/10 11:52:13;;;;;;;1.33;0.67;;;;;;;;;;5014040;28;20622;-80
2023/05/10 11:54:46;;;;;;;2.00;0.68;;;;;;;;;;5013048;28;20409;-80
2023/05/10 11:57:12;;;;;;;1.58;0.55;;;;;;;;;;5013333;28;20427;-80
2023/05/10 11:59:38;;;;;;;3.90;0.70;;;;;;;;;;5013351;28;20389;-80
2023/05/10 12:02:04;;;;;;;2.45;0.70;;;;;;;;;;5012570;28;20427;-80
2023/05/10 12:04:30;;;;;;;2.88;0.80;;;;;;;;;;5012604;28;20421;-79
2023/05/10 12:06:56;;;;;;;4.60;1.10;;;;;;;;;;5012900;28;20402;-81
2023/05/10 12:09:22;;;;;;;2.20;0.70;;;;;;;;;;5011408;28;20451;-79
2023/05/10 12:11:48;;;;;;;2.47;0.65;;;;;;;;;;5012588;28;20397;-80
2023/05/10 12:14:15;;;;;;;6.22;1.10;;;;;;;;;;5009586;28;20417;-81
2023/05/10 12:16:43;;;;;;;2.83;0.70;;;;;;;;;;5011850;28;20910;-81
2023/05/10 12:19:09;;;;;;;1.88;0.60;;;;;;;;;;5011733;28;20400;-81
2023/05/10 12:21:35;;;;;;;3.40;0.90;;;;;;;;;;5005238;28;20920;-80
2023/05/10 12:24:03;;;;;;;3.85;0.73;;;;;;;;;;5012304;28;20423;-80
2023/05/10 12:26:29;;;;;;;3.45;1.00;;;;;;;;;;5009585;28;20381;-80
2023/05/10 12:28:56;;;;;;;3.85;0.57;;;;;;;;;;5012542;28;20381;-81
2023/05/10 12:31:22;;;;;;;7.97;0.80;;;;;;;;;;5012641;28;20849;-81
2023/05/10 12:33:49;;;;;;;4.03;0.95;;;;;;;;;;5012161;28;20384;-80
2023/05/10 12:36:15;;;;;;;3.88;0.90;;;;;;;;;;4998779;28;20381;-80
2023/05/10 12:38:43;;;;;;;1.92;0.70;;;;;;;;;;5012567;28;20397;-81
2023/05/10 12:41:12;;;;;;;2.45;0.70;;;;;;;;;;5011015;28;20491;-81
2023/05/10 12:43:38;;;;;;;2.30;0.70;;;;;;;;;;5012234;28;20387;-81
2023/05/10 12:46:05;;;;;;;6.07;1.10;;;;;;;;;;5012158;28;20388;-80
2023/05/10 12:48:31;;;;;;;1.60;0.40;;;;;;;;;;5003293;28;20383;-81
2023/05/10 12:50:57;;;;;;;1.45;0.60;;;;;;;;;;5012147;28;20387;-80
2023/05/10 12:53:23;;;;;;;2.50;0.60;;;;;;;;;;5012147;28;20734;-81
2023/05/10 12:55:49;;;;;;;1.63;0.60;;;;;;;;;;5007905;28;20748;-83
2023/05/10 12:58:15;;;;;;;2.30;0.68;;;;;;;;;;5009405;28;20866;-82
2023/05/10 13:00:41;;;;;;;2.35;0.65;;;;;;;;;;5011556;28;20491;-83
2023/05/10 13:03:07;;;;;;;2.92;0.50;;;;;;;;;;5010709;28;20437;-82
2023/05/10 13:05:33;;;;;;;2.33;0.70;;;;;;;;;;5011633;28;20419;-82
2023/05/10 13:07:59;;;;;;;1.42;0.60;;;;;;;;;;5011800;28;20381;-82
2023/05/10 13:10:25;;;;;;;4.07;0.57;;;;;;;;;;5002784;28;20432;-83
2023/05/10 13:12:51;;;;;;;3.10;0.60;;;;;;;;;;5010981;28;20389;-82
2023/05/10 13:15:17;;;;;;;3.30;0.70;;;;;;;;;;4998085;28;20410;-81
2023/05/10 13:17:45;;;;;;;2.25;0.80;;;;;;;;;;5002846;28;20796;-82
2023/05/10 13:20:11;;;;;;;4.13;0.57;;;;;;;;;;5003078;28;20401;-82
2023/05/10 13:22:37;;;;;;;2.97;0.90;;;;;;;;;;5011402;28;20407;-81
2023/05/10 13:25:03;;;;;;;1.13;0.47;;;;;;;;;;5011444;28;20380;-82
2023/05/10 13:27:29;;;;;;;1.40;0.50;;;;;;;;;;5011565;28;20396;-82
2023/05/10 13:29:55;;;;;;;2.40;0.60;;;;;;;;;;5008761;28;20377;-82
2023/05/10 13:32:21;;;;;;;1.45;0.50;;;;;;;;;;5011039;28;20435;-82
2023/05/10 13:34:47;;;;;;;2.85;0.80;;;;;;;;;;5009032;28;20392;-82
2023/05/10 13:37:13;;;;;;;1.45;0.60;;;;;;;;;;5011497;28;20388;-81
2023/05/10 13:39:39;;;;;;;1.25;0.40;;;;;;;;;;5011537;28;20866;-81
2023/05/10 13:42:05;;;;;;;2.15;0.50;;;;;;;;;;5011257;28;20508;-82
2023/05/10 13:44:33;;;;;;;2.15;0.60;;;;;;;;;;5011015;28;20431;-81
2023/05/10 13:46:59;;;;;;;2.20;0.55;;;;;;;;;;5010686;28;20746;-82
2023/05/10 13:49:25;;;;;;;2.40;0.55;;;;;;;;;;5011399;28;20383;-81
2023/05/10 13:51:52;;;;;;;2.10;0.60;;;;;;;;;;5009832;28;20964;-81
2023/05/10 13:54:22;;;;;;;1.95;0.52;;;;;;;;;;5010883;28;20746;-83
2023/05/10 13:56:48;;;;;;;2.40;0.57;;;;;;;;;;5011480;28;20384;-82
2023/05/10 13:59:14;;;;;;;1.75;0.60;;;;;;;;;;5010819;28;20393;-83
2023/05/10 14:01:41;;;;;;;1.53;0.50;;;;;;;;;;5005991;28;20441;-83
2023/05/10 14:04:09;;;;;;;1.63;0.70;;;;;;;;;;5011003;28;20396;-82
2023/05/10 14:06:36;;;;;;;3.47;0.70;;;;;;;;;;5011198;28;20921;-80
2023/05/10 14:09:02;;;;;;;3.80;0.60;;;;;;;;;;5010549;28;20934;-82
2023/05/10 14:11:28;;;;;;;2.28;0.60;;;;;;;;;;5010672;28;20882;-82
2023/05/10 14:13:54;;;;;;;2.20;0.60;;;;;;;;;;5012081;28;20449;-83
2023/05/10 14:16:20;;;;;;;2.20;0.68;;;;;;;;;;5013875;28;20388;-82
2023/05/10 14:18:46;;;;;;;2.08;0.50;;;;;;;;;;5011366;28;20456;-82
2023/05/10 14:21:12;;;;;;;1.98;0.70;;;;;;;;;;5007991;28;20415;-82
2023/05/10 14:23:38;;;;;;;2.22;0.75;;;;;;;;;;5014421;28;20850;-83
2023/05/10 14:26:04;;;;;;;2.53;0.60;;;;;;;;;;5014921;28;20415;-82
2023/05/10 14:28:30;;;;;;;1.77;0.50;;;;;;;;;;5005768;28;20378;-83
2023/05/10 14:30:56;;;;;;;2.47;0.70;;;;;;;;;;5010498;28;20530;-83
2023/05/10 14:33:22;;;;;;;2.90;0.85;;;;;;;;;;5005620;28;20746;-82
2023/05/10 14:35:49;;;;;;;2.00;0.80;;;;;;;;;;5014755;28;21001;-82
2023/05/10 14:38:15;;;;;;;2.70;0.80;;;;;;;;;;5015141;28;20419;-83
2023/05/10 14:40:42;;;;;;;2.42;0.80;;;;;;;;;;5015118;28;20416;-83
2023/05/10 14:43:08;;;;;;;2.45;0.65;;;;;;;;;;5015318;28;20948;-83